createdAt,value
2017-01-04T00:00:04.511Z,0
2017-01-04T00:05:04.621Z,0
2017-01-04T00:10:04.884Z,0
2017-01-04T00:15:04.701Z,0
2017-01-04T00:20:04.651Z,0
2017-01-04T00:25:04.632Z,0
2017-01-04T00:30:04.640Z,0
2017-01-04T00:35:04.572Z,0
2017-01-04T00:40:04.857Z,0
2017-01-04T00:45:05.041Z,0
2017-01-04T00:50:04.003Z,0
2017-01-04T00:55:04.951Z,0
2017-01-04T01:00:04.865Z,0
2017-01-04T01:05:04.873Z,0
2017-01-04T01:10:05.021Z,0
2017-01-04T01:15:04.057Z,0
2017-01-04T01:20:04.884Z,0
2017-01-04T01:25:04.909Z,0
2017-01-04T01:30:04.942Z,0
2017-01-04T01:35:04.847Z,0
2017-01-04T01:40:03.972Z,0
2017-01-04T01:45:04.990Z,0
2017-01-04T01:50:04.918Z,0
2017-01-04T01:55:05.039Z,0
2017-01-04T02:00:04.819Z,0
2017-01-04T02:05:04.646Z,0
2017-01-04T02:10:04.816Z,0
2017-01-04T02:15:04.914Z,0
2017-01-04T02:20:04.811Z,0
2017-01-04T02:25:04.889Z,0
2017-01-04T02:30:04.636Z,0
2017-01-04T02:35:04.402Z,0
2017-01-04T02:40:04.712Z,0
2017-01-04T02:45:04.446Z,0
2017-01-04T02:50:04.180Z,0
2017-01-04T02:55:04.154Z,0
2017-01-04T03:00:04.644Z,0
2017-01-04T03:05:06.613Z,0
2017-01-04T03:10:04.069Z,0
2017-01-04T03:15:04.806Z,0
2017-01-04T03:20:04.844Z,0
2017-01-04T03:25:04.638Z,0
2017-01-04T03:30:04.644Z,0
2017-01-04T03:35:04.812Z,0
2017-01-04T03:40:04.216Z,0
2017-01-04T03:45:04.041Z,0
2017-01-04T03:50:04.817Z,0
2017-01-04T03:55:04.870Z,0
2017-01-04T04:00:04.866Z,0
2017-01-04T04:05:04.632Z,0
2017-01-04T04:10:04.064Z,0
2017-01-04T04:15:05.060Z,0
2017-01-04T04:20:04.893Z,0
2017-01-04T04:25:04.779Z,0
2017-01-04T04:30:04.761Z,0
2017-01-04T04:35:04.635Z,0
2017-01-04T04:40:04.576Z,0
2017-01-04T04:45:04.484Z,0
2017-01-04T04:50:04.210Z,0
2017-01-04T04:55:03.953Z,0
2017-01-04T05:00:04.698Z,0
2017-01-04T05:05:04.630Z,0
2017-01-04T05:10:03.979Z,0
2017-01-04T05:15:04.951Z,0
2017-01-04T05:20:04.800Z,0
2017-01-04T05:25:04.724Z,0
2017-01-04T05:30:04.797Z,0
2017-01-04T05:35:04.593Z,0
2017-01-04T05:40:04.791Z,0
2017-01-04T05:45:04.463Z,0
2017-01-04T05:50:04.118Z,0
2017-01-04T05:55:04.746Z,0
2017-01-04T06:00:04.863Z,0
2017-01-04T06:05:04.631Z,0
2017-01-04T06:10:04.806Z,0
2017-01-04T06:15:04.902Z,0
2017-01-04T06:20:04.958Z,0
2017-01-04T06:25:04.116Z,0
2017-01-04T06:30:04.345Z,0
2017-01-04T06:35:04.456Z,0
2017-01-04T06:40:04.983Z,0
2017-01-04T06:45:04.931Z,0
2017-01-04T06:50:04.973Z,0
2017-01-04T06:55:04.839Z,0
2017-01-04T07:00:04.873Z,1
2017-01-04T07:05:04.866Z,1
2017-01-04T07:10:04.148Z,3
2017-01-04T07:15:04.119Z,8
2017-01-04T07:20:04.055Z,17
2017-01-04T07:25:04.941Z,41
2017-01-04T07:30:05.082Z,56
2017-01-04T07:35:05.082Z,144
2017-01-04T07:40:05.030Z,186
2017-01-04T07:45:04.917Z,153
2017-01-04T07:50:04.902Z,182
2017-01-04T07:55:04.723Z,309
2017-01-04T08:00:04.576Z,571
2017-01-04T08:05:04.309Z,979
2017-01-04T08:10:04.224Z,577
2017-01-04T08:15:04.223Z,614
2017-01-04T08:20:04.188Z,659
2017-01-04T08:25:04.116Z,764
2017-01-04T08:30:04.163Z,900
2017-01-04T08:35:05.004Z,1000
2017-01-04T08:40:04.315Z,1000
2017-01-04T08:45:04.482Z,1000
2017-01-04T08:50:04.408Z,1000
2017-01-04T08:55:04.414Z,1000
2017-01-04T09:00:04.461Z,1000
2017-01-04T09:05:04.276Z,2000
2017-01-04T09:10:04.334Z,2000
2017-01-04T09:15:04.245Z,2000
2017-01-04T09:20:04.318Z,2000
2017-01-04T09:25:04.276Z,1000
2017-01-04T09:30:04.192Z,1000
2017-01-04T09:35:04.210Z,3000
2017-01-04T09:40:04.259Z,3000
2017-01-04T09:45:04.355Z,3000
2017-01-04T09:50:04.307Z,2000
2017-01-04T09:55:04.442Z,4000
2017-01-04T10:00:04.017Z,3000
2017-01-04T10:05:04.225Z,2000
2017-01-04T10:10:04.137Z,8000
2017-01-04T10:15:04.159Z,729
2017-01-04T10:20:04.151Z,932
2017-01-04T10:25:04.860Z,2000
2017-01-04T10:30:04.934Z,2000
2017-01-04T10:35:04.155Z,3000
2017-01-04T10:40:04.647Z,3000
2017-01-04T10:45:04.605Z,3000
2017-01-04T10:50:04.438Z,3000
2017-01-04T10:55:04.135Z,5000
2017-01-04T11:00:05.013Z,4000
2017-01-04T11:05:04.748Z,4000
2017-01-04T11:10:04.177Z,4000
2017-01-04T11:15:05.007Z,5000
2017-01-04T11:20:04.220Z,4000
2017-01-04T11:25:04.849Z,5000
2017-01-04T11:30:05.077Z,5000
2017-01-04T11:35:04.855Z,5000
2017-01-04T11:40:04.039Z,5000
2017-01-04T11:45:04.171Z,5000
2017-01-04T11:50:04.199Z,6000
2017-01-04T11:55:04.163Z,3000
2017-01-04T12:00:03.918Z,2000
2017-01-04T12:05:04.642Z,5000
2017-01-04T12:10:04.108Z,4000
2017-01-04T12:15:04.253Z,3000
2017-01-04T12:20:04.353Z,3000
2017-01-04T12:25:04.445Z,3000
2017-01-04T12:30:04.589Z,3000
2017-01-04T12:35:04.674Z,3000
2017-01-04T12:40:05.435Z,3000
2017-01-04T12:45:05.288Z,5000
2017-01-04T12:50:04.866Z,5000
2017-01-04T12:55:05.600Z,5000
2017-01-04T13:00:05.406Z,3000
2017-01-04T13:05:05.023Z,5000
2017-01-04T13:10:05.092Z,6000
2017-01-04T13:15:04.772Z,7000
2017-01-04T13:20:05.396Z,2000
2017-01-04T13:25:05.148Z,1000
2017-01-04T13:30:04.252Z,2000
2017-01-04T13:35:04.215Z,4000
2017-01-04T13:40:04.691Z,3000
2017-01-04T13:45:04.580Z,3000
2017-01-04T13:50:05.545Z,3000
2017-01-04T13:55:04.707Z,3000
2017-01-04T14:00:04.804Z,2000
2017-01-04T14:05:04.794Z,2000
2017-01-04T14:10:04.413Z,3000
2017-01-04T14:15:04.206Z,2000
2017-01-04T14:20:04.335Z,2000
2017-01-04T14:25:04.214Z,3000
2017-01-04T14:30:04.180Z,2000
2017-01-04T14:35:04.395Z,3000
2017-01-04T14:40:04.844Z,3000
2017-01-04T14:45:04.994Z,3000
2017-01-04T14:50:05.000Z,3000
2017-01-04T14:55:04.801Z,3000
2017-01-04T15:00:04.628Z,4000
2017-01-04T15:05:04.485Z,2000
2017-01-04T15:10:04.822Z,597
2017-01-04T15:15:04.953Z,402
2017-01-04T15:20:05.009Z,153
2017-01-04T15:25:04.916Z,226
2017-01-04T15:30:05.118Z,125
2017-01-04T15:35:04.284Z,64
2017-01-04T15:40:04.649Z,62
2017-01-04T15:45:04.571Z,57
2017-01-04T15:50:04.441Z,40
2017-01-04T15:55:04.387Z,26
2017-01-04T16:00:04.171Z,7
2017-01-04T16:05:04.163Z,7
2017-01-04T16:10:04.750Z,9
2017-01-04T16:15:04.610Z,7
2017-01-04T16:20:04.639Z,3
2017-01-04T16:25:04.391Z,0
2017-01-04T16:30:04.382Z,0
2017-01-04T16:35:04.515Z,0
2017-01-04T16:40:04.536Z,0
2017-01-04T16:45:04.420Z,0
2017-01-04T16:50:04.309Z,0
2017-01-04T16:55:04.447Z,0
2017-01-04T17:00:05.076Z,0
2017-01-04T17:05:04.500Z,0
2017-01-04T17:10:04.910Z,0
2017-01-04T17:15:05.241Z,0
2017-01-04T17:20:04.179Z,0
2017-01-04T17:25:05.801Z,0
2017-01-04T17:30:04.817Z,0
2017-01-04T17:35:05.135Z,0
2017-01-04T17:40:04.499Z,0
2017-01-04T17:45:04.606Z,0
2017-01-04T17:50:04.664Z,0
2017-01-04T17:55:04.878Z,0
2017-01-04T18:00:04.831Z,0
2017-01-04T18:05:04.876Z,0
2017-01-04T18:10:04.320Z,0
2017-01-04T18:15:04.984Z,0
2017-01-04T18:20:04.934Z,0
2017-01-04T18:25:04.922Z,0
2017-01-04T18:30:04.972Z,0
2017-01-04T18:35:04.671Z,0
2017-01-04T18:40:04.812Z,0
2017-01-04T18:45:04.495Z,0
2017-01-04T18:50:04.203Z,0
2017-01-04T18:55:05.043Z,0
2017-01-04T19:00:04.085Z,0
2017-01-04T19:05:04.299Z,0
2017-01-04T19:10:04.573Z,0
2017-01-04T19:15:04.737Z,0
2017-01-04T19:20:04.873Z,0
2017-01-04T19:25:05.113Z,0
2017-01-04T19:30:04.252Z,0
2017-01-04T19:35:04.480Z,0
2017-01-04T19:40:04.728Z,0
2017-01-04T19:45:04.704Z,0
2017-01-04T19:50:04.771Z,0
2017-01-04T19:55:04.572Z,0
2017-01-04T20:00:04.224Z,0
2017-01-04T20:05:04.148Z,0
2017-01-04T20:10:04.618Z,0
2017-01-04T20:15:04.633Z,0
2017-01-04T20:20:04.472Z,0
2017-01-04T20:25:04.285Z,0
2017-01-04T20:30:04.494Z,0
2017-01-04T20:35:04.408Z,0
2017-01-04T20:40:04.566Z,0
2017-01-04T20:45:04.465Z,0
2017-01-04T20:50:04.587Z,0
2017-01-04T20:55:04.720Z,0
2017-01-04T21:00:04.950Z,0
2017-01-04T21:05:04.843Z,0
2017-01-04T21:10:04.161Z,0
2017-01-04T21:15:04.086Z,0
2017-01-04T21:20:04.888Z,0
2017-01-04T21:25:05.111Z,0
2017-01-04T21:30:05.190Z,0
2017-01-04T21:35:04.235Z,0
2017-01-04T21:40:04.273Z,0
2017-01-04T21:45:04.304Z,0
2017-01-04T21:50:04.442Z,0
2017-01-04T21:55:04.581Z,0
2017-01-04T22:00:04.638Z,0
2017-01-04T22:05:04.747Z,0
2017-01-04T22:10:04.105Z,0
2017-01-04T22:15:04.193Z,0
2017-01-04T22:20:04.937Z,0
2017-01-04T22:25:04.838Z,0
2017-01-04T22:30:05.161Z,0
2017-01-04T22:35:04.975Z,0
2017-01-04T22:40:04.165Z,0
2017-01-04T22:45:04.049Z,0
2017-01-04T22:50:04.856Z,0
2017-01-04T22:55:04.760Z,0
2017-01-04T23:00:04.509Z,0
2017-01-04T23:05:04.213Z,0
2017-01-04T23:10:04.603Z,0
2017-01-04T23:15:04.666Z,0
2017-01-04T23:20:04.731Z,0
2017-01-04T23:25:04.661Z,0
2017-01-04T23:30:04.451Z,0
2017-01-04T23:35:04.276Z,0
2017-01-04T23:40:04.547Z,0
2017-01-04T23:45:04.721Z,0
2017-01-04T23:50:04.584Z,0
2017-01-04T23:55:04.242Z,0
